Alverda, Pennsylvania
Current Conditions -  °F | °C
As of 6:55 AM on Saturday 20 Dec 2014 (Local Time) from KIDI Reporting Station
Overcast Overcast  
Wind Chill: 19°   Ceiling: 2200
Heat Index: 25°   Visibility: 10mi
Dew Point: 19°   Wind: 5mph
Humidity: 80%   Direction: 250°WSW
Pressure: 30.29"   Gusts: NA
Location:  40.63°N, 78.86°W
Report Text: KIDI 201155Z AUTO 25004KT 10SM OVC022 M04/M07 A3029 RMK A01
Loading
Personal Weather Stations






























Interactive Weather Map New forecast layout! Learn more

10-Day Weather Forecast

Advertisements
Track Severe Weather on mobile